Time;durP1;ratioP1;P1;durP2;ratioP2;P2;SDS_P1;SDS_P2;PMS_P1;PMS_P2;Temp;Humidity;BMP_temperature;BMP_pressure;BME280_temperature;BME280_humidity;BME280_pressure;Samples;Min_cycle;Max_cycle;Signal;HPM_P1;HPM_P2
2023/09/15 00:00:45;;;;;;;1.90;1.23;;;;;;;;;;5011419;28;20231;-59
2023/09/15 00:03:12;;;;;;;1.20;1.20;;;;;;;;;;5010667;28;20217;-59
2023/09/15 00:05:39;;;;;;;2.30;1.25;;;;;;;;;;5011267;28;20777;-59
2023/09/15 00:08:07;;;;;;;1.20;1.20;;;;;;;;;;5011108;28;20209;-59
2023/09/15 00:10:34;;;;;;;1.55;1.30;;;;;;;;;;5010600;28;20221;-59
2023/09/15 00:13:02;;;;;;;1.35;1.30;;;;;;;;;;5011440;28;20236;-59
2023/09/15 00:15:32;;;;;;;1.83;1.40;;;;;;;;;;5010372;28;20210;-58
2023/09/15 00:17:59;;;;;;;1.70;1.30;;;;;;;;;;5011432;28;20209;-59
2023/09/15 00:20:26;;;;;;;2.25;1.20;;;;;;;;;;5010787;28;20204;-59
2023/09/15 00:22:55;;;;;;;1.27;1.20;;;;;;;;;;5010504;28;20233;-59
2023/09/15 00:25:23;;;;;;;1.65;1.40;;;;;;;;;;5010506;28;20720;-59
2023/09/15 00:27:51;;;;;;;2.60;1.30;;;;;;;;;;5010490;28;20243;-59
2023/09/15 00:30:19;;;;;;;1.20;1.15;;;;;;;;;;5010594;28;20267;-59
2023/09/15 00:32:49;;;;;;;5.22;1.40;;;;;;;;;;5010004;28;20227;-59
2023/09/15 00:35:17;;;;;;;1.70;0.80;;;;;;;;;;5009874;28;20789;-59
2023/09/15 00:37:45;;;;;;;1.73;1.33;;;;;;;;;;5011086;28;20620;-59
2023/09/15 00:40:13;;;;;;;1.30;1.20;;;;;;;;;;5011146;28;20220;-59
2023/09/15 00:42:40;;;;;;;1.75;0.90;;;;;;;;;;5001469;28;20209;-59
2023/09/15 00:45:09;;;;;;;3.30;1.37;;;;;;;;;;5011503;28;20216;-59
2023/09/15 00:47:38;;;;;;;1.33;1.23;;;;;;;;;;5010884;28;20205;-58
2023/09/15 00:50:07;;;;;;;2.67;1.43;;;;;;;;;;5011387;28;20580;-59
2023/09/15 00:52:37;;;;;;;2.53;1.43;;;;;;;;;;5011038;28;20205;-59
2023/09/15 00:55:05;;;;;;;5.13;1.20;;;;;;;;;;5010894;28;20205;-58
2023/09/15 00:57:34;;;;;;;2.57;1.20;;;;;;;;;;5010189;28;20261;-58
2023/09/15 01:00:02;;;;;;;1.07;1.07;;;;;;;;;;5008565;28;20308;-59
2023/09/15 01:02:29;;;;;;;2.20;1.77;;;;;;;;;;5008436;28;20259;-59
2023/09/15 01:04:56;;;;;;;1.00;1.00;;;;;;;;;;5009815;28;20205;-61
2023/09/15 01:07:24;;;;;;;3.17;1.20;;;;;;;;;;5006416;28;20216;-59
2023/09/15 01:09:52;;;;;;;3.73;1.30;;;;;;;;;;5010710;28;20895;-60
2023/09/15 01:12:19;;;;;;;1.20;1.10;;;;;;;;;;5010457;28;20229;-59
2023/09/15 01:14:46;;;;;;;1.37;1.27;;;;;;;;;;5010875;28;20224;-60
2023/09/15 01:17:17;;;;;;;1.87;1.10;;;;;;;;;;5010815;28;20204;-60
2023/09/15 01:19:53;;;;;;;2.70;1.33;;;;;;;;;;5009823;28;20205;-59
2023/09/15 01:22:41;;;;;;;1.00;1.00;;;;;;;;;;4991347;28;20217;-59
2023/09/15 01:25:16;;;;;;;1.47;1.37;;;;;;;;;;5002780;28;20213;-59
2023/09/15 01:28:03;;;;;;;1.50;1.40;;;;;;;;;;5010554;28;20212;-59
2023/09/15 01:30:32;;;;;;;1.17;1.17;;;;;;;;;;5009597;28;20232;-59
2023/09/15 01:32:59;;;;;;;1.50;1.30;;;;;;;;;;5010154;28;20213;-59
2023/09/15 01:35:26;;;;;;;1.90;1.30;;;;;;;;;;5009673;28;20205;-59
2023/09/15 01:37:53;;;;;;;1.23;1.23;;;;;;;;;;5010498;28;20216;-59
2023/09/15 01:40:20;;;;;;;3.83;1.43;;;;;;;;;;5009538;28;20209;-59
2023/09/15 01:42:50;;;;;;;2.60;1.40;;;;;;;;;;4999917;28;20209;-59
2023/09/15 01:45:17;;;;;;;3.17;1.20;;;;;;;;;;5010469;28;20217;-59
2023/09/15 01:47:46;;;;;;;4.50;1.20;;;;;;;;;;5009693;28;20209;-59
2023/09/15 01:50:13;;;;;;;1.47;1.20;;;;;;;;;;5010373;28;20213;-59
2023/09/15 01:52:41;;;;;;;1.73;1.27;;;;;;;;;;5009152;28;20585;-59
2023/09/15 01:55:09;;;;;;;1.37;1.30;;;;;;;;;;5009978;28;20209;-59
2023/09/15 01:57:36;;;;;;;1.23;1.23;;;;;;;;;;5009629;28;20256;-59
2023/09/15 02:00:03;;;;;;;1.33;1.20;;;;;;;;;;5010017;28;20205;-59
2023/09/15 02:02:30;;;;;;;1.23;1.17;;;;;;;;;;5009691;28;20263;-59
2023/09/15 02:04:59;;;;;;;1.13;1.10;;;;;;;;;;5009820;28;20205;-59
2023/09/15 02:07:26;;;;;;;1.93;1.40;;;;;;;;;;5010055;28;20205;-59
2023/09/15 02:09:53;;;;;;;1.77;1.40;;;;;;;;;;5010083;28;20216;-59
2023/09/15 02:12:20;;;;;;;3.33;1.70;;;;;;;;;;5009215;28;20581;-59
2023/09/15 02:14:47;;;;;;;1.83;1.33;;;;;;;;;;5009869;28;20213;-59
2023/09/15 02:17:15;;;;;;;1.73;1.20;;;;;;;;;;5009329;28;20208;-59
2023/09/15 02:19:42;;;;;;;1.10;1.10;;;;;;;;;;5009962;28;20220;-59
2023/09/15 02:22:11;;;;;;;1.30;1.30;;;;;;;;;;5004957;28;20208;-59
2023/09/15 02:24:38;;;;;;;2.57;1.47;;;;;;;;;;5009544;28;20229;-59
2023/09/15 02:27:05;;;;;;;1.67;1.53;;;;;;;;;;5005888;28;20216;-59
2023/09/15 02:29:32;;;;;;;4.30;1.30;;;;;;;;;;5006578;28;20216;-59
2023/09/15 02:32:00;;;;;;;2.00;1.10;;;;;;;;;;5008886;28;20722;-59
2023/09/15 02:34:27;;;;;;;2.50;1.20;;;;;;;;;;5006165;28;20672;-59
2023/09/15 02:36:54;;;;;;;2.97;1.67;;;;;;;;;;5009123;28;20208;-59
2023/09/15 02:39:22;;;;;;;2.43;1.40;;;;;;;;;;5009333;28;20205;-59
2023/09/15 02:41:49;;;;;;;2.13;1.33;;;;;;;;;;5008559;28;20197;-59
2023/09/15 02:44:16;;;;;;;1.33;1.33;;;;;;;;;;5008372;28;20244;-59
2023/09/15 02:46:43;;;;;;;2.10;1.30;;;;;;;;;;5009451;28;20208;-59
2023/09/15 02:49:10;;;;;;;2.53;1.40;;;;;;;;;;5009459;28;20583;-59
2023/09/15 02:51:38;;;;;;;4.53;1.63;;;;;;;;;;5007845;28;20225;-59
2023/09/15 02:54:06;;;;;;;2.37;1.57;;;;;;;;;;5008423;28;20255;-59
2023/09/15 02:56:34;;;;;;;1.43;1.37;;;;;;;;;;5008077;28;20296;-59
2023/09/15 02:59:01;;;;;;;3.23;1.40;;;;;;;;;;5006873;28;20217;-59
2023/09/15 03:01:29;;;;;;;1.83;1.53;;;;;;;;;;5008246;28;20304;-60
2023/09/15 03:03:56;;;;;;;6.23;1.67;;;;;;;;;;4999945;28;20213;-59
2023/09/15 03:06:23;;;;;;;1.53;1.27;;;;;;;;;;5007300;28;20212;-59
2023/09/15 03:08:50;;;;;;;1.67;1.43;;;;;;;;;;5008628;28;20244;-59
2023/09/15 03:11:17;;;;;;;1.70;1.60;;;;;;;;;;5008247;28;20228;-59
2023/09/15 03:13:46;;;;;;;4.30;1.83;;;;;;;;;;5008073;28;20279;-60
2023/09/15 03:16:13;;;;;;;1.63;1.53;;;;;;;;;;5008492;28;20337;-59
2023/09/15 03:18:42;;;;;;;1.20;1.20;;;;;;;;;;5007991;28;20340;-59
2023/09/15 03:21:10;;;;;;;1.53;1.40;;;;;;;;;;5008559;28;20209;-59
2023/09/15 03:23:37;;;;;;;1.50;1.50;;;;;;;;;;5007808;28;20231;-59
2023/09/15 03:26:05;;;;;;;1.37;1.27;;;;;;;;;;5007894;28;20216;-59
2023/09/15 03:28:33;;;;;;;1.40;1.30;;;;;;;;;;5007789;28;20675;-59
2023/09/15 03:31:03;;;;;;;3.40;1.60;;;;;;;;;;5007611;28;20260;-59
2023/09/15 03:33:31;;;;;;;3.40;1.60;;;;;;;;;;5007651;28;20236;-59
2023/09/15 03:35:58;;;;;;;1.40;1.30;;;;;;;;;;5007956;28;20236;-59
2023/09/15 03:38:25;;;;;;;1.60;1.50;;;;;;;;;;5008119;28;20205;-59
2023/09/15 03:40:52;;;;;;;3.13;1.53;;;;;;;;;;5008080;28;20219;-59
2023/09/15 03:43:19;;;;;;;2.23;1.83;;;;;;;;;;5006664;28;20213;-59
2023/09/15 03:45:47;;;;;;;1.40;1.40;;;;;;;;;;5008118;28;20209;-59
2023/09/15 03:48:16;;;;;;;1.63;1.30;;;;;;;;;;5008206;28;20293;-59
2023/09/15 03:50:43;;;;;;;2.60;1.47;;;;;;;;;;5007250;28;20216;-59
2023/09/15 03:53:10;;;;;;;3.93;1.40;;;;;;;;;;5007927;28;20235;-59
2023/09/15 03:55:37;;;;;;;1.57;1.47;;;;;;;;;;5007138;28;20233;-59
2023/09/15 03:58:04;;;;;;;4.37;1.83;;;;;;;;;;5008227;28;20240;-58
2023/09/15 04:00:31;;;;;;;2.53;1.60;;;;;;;;;;4988992;28;20230;-58
2023/09/15 04:02:58;;;;;;;2.47;1.50;;;;;;;;;;4988984;28;20209;-59
2023/09/15 04:05:27;;;;;;;1.30;1.20;;;;;;;;;;5004535;28;20243;-58
2023/09/15 04:07:54;;;;;;;3.03;1.60;;;;;;;;;;5012080;28;20209;-59
2023/09/15 04:10:21;;;;;;;2.00;1.53;;;;;;;;;;5011672;28;20213;-59
2023/09/15 04:12:48;;;;;;;3.83;1.67;;;;;;;;;;5011566;28;20243;-59
2023/09/15 04:15:15;;;;;;;2.90;1.70;;;;;;;;;;5010923;28;20655;-59
2023/09/15 04:17:42;;;;;;;1.90;1.80;;;;;;;;;;5011236;28;20217;-59
2023/09/15 04:20:10;;;;;;;1.83;1.17;;;;;;;;;;5011351;28;20209;-59
2023/09/15 04:22:39;;;;;;;1.80;1.67;;;;;;;;;;5010996;28;20303;-59
2023/09/15 04:25:07;;;;;;;1.60;1.40;;;;;;;;;;5011308;28;20201;-59
2023/09/15 04:27:34;;;;;;;1.73;1.63;;;;;;;;;;5010501;28;20566;-59
2023/09/15 04:30:02;;;;;;;2.43;1.80;;;;;;;;;;5010070;28;20208;-59
2023/09/15 04:32:29;;;;;;;3.23;1.57;;;;;;;;;;5010531;28;20323;-59
2023/09/15 04:34:56;;;;;;;4.77;1.53;;;;;;;;;;5011133;28;20205;-59
2023/09/15 04:37:23;;;;;;;2.83;1.73;;;;;;;;;;5009825;28;20205;-59
2023/09/15 04:39:54;;;;;;;3.90;1.73;;;;;;;;;;5011655;28;20641;-59
2023/09/15 04:42:21;;;;;;;2.47;1.53;;;;;;;;;;5000332;28;20206;-59
2023/09/15 04:44:48;;;;;;;2.93;1.50;;;;;;;;;;5005697;28;20208;-59
2023/09/15 04:47:29;;;;;;;2.40;1.80;;;;;;;;;;5010431;28;20780;-59
2023/09/15 04:49:57;;;;;;;3.60;1.63;;;;;;;;;;5010848;28;20216;-58
2023/09/15 04:52:24;;;;;;;2.10;1.63;;;;;;;;;;5004673;28;20228;-59
2023/09/15 04:54:52;;;;;;;2.77;1.73;;;;;;;;;;5010749;28;20201;-59
2023/09/15 04:57:19;;;;;;;5.40;1.60;;;;;;;;;;5000110;28;20237;-59
2023/09/15 04:59:47;;;;;;;1.30;1.30;;;;;;;;;;5010464;28;20237;-59
2023/09/15 05:02:14;;;;;;;1.90;1.80;;;;;;;;;;5009906;28;20201;-59
2023/09/15 05:04:42;;;;;;;1.50;1.40;;;;;;;;;;5005934;28;20699;-62
2023/09/15 05:07:09;;;;;;;2.20;1.37;;;;;;;;;;5007795;28;20205;-59
2023/09/15 05:09:36;;;;;;;2.53;2.07;;;;;;;;;;5007177;28;20213;-59
2023/09/15 05:12:04;;;;;;;2.90;1.73;;;;;;;;;;4991639;28;20229;-59
2023/09/15 05:14:31;;;;;;;3.03;1.47;;;;;;;;;;5001707;28;20211;-59
2023/09/15 05:16:58;;;;;;;2.30;1.67;;;;;;;;;;5006334;28;20213;-59
2023/09/15 05:19:25;;;;;;;2.03;1.93;;;;;;;;;;5009779;28;20212;-59
2023/09/15 05:21:52;;;;;;;3.13;1.80;;;;;;;;;;5009659;28;20205;-59
2023/09/15 05:24:19;;;;;;;38.13;9.27;;;;;;;;;;5009982;28;20209;-59
2023/09/15 05:26:46;;;;;;;3.60;1.70;;;;;;;;;;5009351;28;20208;-59
2023/09/15 05:29:15;;;;;;;2.53;1.70;;;;;;;;;;5007187;28;20201;-59
2023/09/15 05:31:42;;;;;;;5.30;2.03;;;;;;;;;;5010035;28;20240;-59
2023/09/15 05:34:09;;;;;;;4.20;1.67;;;;;;;;;;5010271;28;20205;-59
2023/09/15 05:36:36;;;;;;;3.83;1.73;;;;;;;;;;5010341;28;20205;-59
2023/09/15 05:39:03;;;;;;;2.57;2.37;;;;;;;;;;5008654;28;20221;-59
2023/09/15 05:41:31;;;;;;;4.17;2.17;;;;;;;;;;5010015;28;20685;-59
2023/09/15 05:43:58;;;;;;;2.37;1.57;;;;;;;;;;4991283;28;20236;-59
2023/09/15 05:46:26;;;;;;;2.43;1.60;;;;;;;;;;5010350;28;20223;-59
2023/09/15 05:48:53;;;;;;;2.47;1.58;;;;;;;;;;5010651;28;20212;-59
2023/09/15 05:51:20;;;;;;;2.93;1.70;;;;;;;;;;5010226;28;20224;-59
2023/09/15 05:53:48;;;;;;;1.98;1.70;;;;;;;;;;5010142;28;20259;-59
2023/09/15 05:56:15;;;;;;;3.92;2.33;;;;;;;;;;4995704;28;20232;-59
2023/09/15 05:58:42;;;;;;;2.70;2.05;;;;;;;;;;5010118;28;20236;-61
2023/09/15 06:01:09;;;;;;;7.50;1.73;;;;;;;;;;5009887;28;20615;-60
2023/09/15 06:03:37;;;;;;;3.38;2.38;;;;;;;;;;5010250;28;20192;-59
2023/09/15 06:06:05;;;;;;;3.03;1.98;;;;;;;;;;5009614;28;20209;-61
2023/09/15 06:08:32;;;;;;;11.32;2.67;;;;;;;;;;5010013;28;20209;-60
2023/09/15 06:11:00;;;;;;;3.42;2.20;;;;;;;;;;5010288;28;20204;-60
2023/09/15 06:13:27;;;;;;;1.98;1.88;;;;;;;;;;5003493;28;20240;-60
2023/09/15 06:15:54;;;;;;;2.50;2.30;;;;;;;;;;5009835;28;20205;-60
2023/09/15 06:18:21;;;;;;;2.67;2.35;;;;;;;;;;5008873;28;20212;-61
2023/09/15 06:20:49;;;;;;;5.30;2.70;;;;;;;;;;5008638;28;20206;-60
2023/09/15 06:23:16;;;;;;;2.47;2.28;;;;;;;;;;5006397;28;20209;-61
2023/09/15 06:25:46;;;;;;;2.65;2.45;;;;;;;;;;5008264;28;20212;-60
2023/09/15 06:28:13;;;;;;;2.22;1.92;;;;;;;;;;5009320;28;20239;-60
2023/09/15 06:30:40;;;;;;;3.13;2.40;;;;;;;;;;5008735;28;20702;-61
2023/09/15 06:33:07;;;;;;;3.42;2.30;;;;;;;;;;5009569;28;20703;-61
2023/09/15 06:35:34;;;;;;;4.63;2.55;;;;;;;;;;5007596;28;20216;-60
2023/09/15 06:38:06;;;;;;;4.70;2.42;;;;;;;;;;5008855;28;21015;-61
2023/09/15 06:40:33;;;;;;;2.65;2.45;;;;;;;;;;5006669;28;20247;-62
2023/09/15 06:43:00;;;;;;;4.10;2.35;;;;;;;;;;5009188;28;20205;-61
2023/09/15 06:45:27;;;;;;;2.28;2.17;;;;;;;;;;5007516;28;20216;-61
2023/09/15 06:47:54;;;;;;;2.70;2.40;;;;;;;;;;5008900;28;20208;-61
2023/09/15 06:50:22;;;;;;;3.00;2.78;;;;;;;;;;5009339;28;20205;-63
2023/09/15 06:52:49;;;;;;;4.50;2.67;;;;;;;;;;5007269;28;20240;-61
2023/09/15 06:55:17;;;;;;;4.82;2.58;;;;;;;;;;5008109;28;20201;-61
2023/09/15 06:57:44;;;;;;;2.42;2.28;;;;;;;;;;5008132;28;20607;-62
2023/09/15 07:00:12;;;;;;;7.55;2.38;;;;;;;;;;4991747;28;20210;-61
2023/09/15 07:02:39;;;;;;;2.88;2.65;;;;;;;;;;4988899;28;20201;-62
2023/09/15 07:05:06;;;;;;;3.03;2.78;;;;;;;;;;5000107;28;20224;-62
2023/09/15 07:07:33;;;;;;;3.05;2.20;;;;;;;;;;5008449;28;20216;-62
2023/09/15 07:10:00;;;;;;;3.20;2.95;;;;;;;;;;5008235;28;20213;-61
2023/09/15 07:12:28;;;;;;;2.85;2.65;;;;;;;;;;5008086;28;20253;-62
2023/09/15 07:14:55;;;;;;;4.32;2.72;;;;;;;;;;5007970;28;20213;-62
2023/09/15 07:17:22;;;;;;;5.13;2.58;;;;;;;;;;5008013;28;20217;-62
2023/09/15 07:19:49;;;;;;;5.22;3.00;;;;;;;;;;5007201;28;20205;-62
2023/09/15 07:22:16;;;;;;;5.38;3.35;;;;;;;;;;5008031;28;20213;-62
2023/09/15 07:24:44;;;;;;;6.47;2.78;;;;;;;;;;5007247;28;20753;-62
2023/09/15 07:27:11;;;;;;;5.45;2.90;;;;;;;;;;5008156;28;20215;-63
2023/09/15 07:29:39;;;;;;;2.95;2.83;;;;;;;;;;5008361;28;20582;-62
2023/09/15 07:32:07;;;;;;;3.03;2.83;;;;;;;;;;5008343;28;20213;-63
2023/09/15 07:34:34;;;;;;;2.75;2.63;;;;;;;;;;5008179;28;20217;-62
2023/09/15 07:37:02;;;;;;;5.00;3.00;;;;;;;;;;5008280;28;20213;-61
2023/09/15 07:39:29;;;;;;;3.40;3.10;;;;;;;;;;5008204;28;20705;-63
2023/09/15 07:41:57;;;;;;;3.50;3.30;;;;;;;;;;5010455;28;20687;-62
2023/09/15 07:44:24;;;;;;;5.03;2.67;;;;;;;;;;5012037;28;20228;-62
2023/09/15 07:46:52;;;;;;;2.83;2.53;;;;;;;;;;5007390;28;20213;-65
2023/09/15 07:49:19;;;;;;;3.47;3.17;;;;;;;;;;5009868;28;20209;-60
2023/09/15 07:51:48;;;;;;;3.38;3.17;;;;;;;;;;4999426;28;20694;-63
2023/09/15 07:54:15;;;;;;;3.33;3.13;;;;;;;;;;5009381;28;20236;-65
2023/09/15 07:56:42;;;;;;;3.65;3.45;;;;;;;;;;5011357;28;20276;-68
2023/09/15 07:59:10;;;;;;;3.75;3.40;;;;;;;;;;5010597;28;20210;-67
2023/09/15 08:01:37;;;;;;;3.15;2.95;;;;;;;;;;4999207;28;20204;-66
2023/09/15 08:04:05;;;;;;;3.45;3.22;;;;;;;;;;5004117;28;20309;-65
2023/09/15 08:06:32;;;;;;;5.53;3.67;;;;;;;;;;5007591;28;20217;-66
2023/09/15 08:09:00;;;;;;;4.25;3.47;;;;;;;;;;5010974;28;20238;-66
2023/09/15 08:11:27;;;;;;;3.65;3.40;;;;;;;;;;5011589;28;20963;-65
2023/09/15 08:13:54;;;;;;;4.55;3.75;;;;;;;;;;5011336;28;20221;-61
2023/09/15 08:16:21;;;;;;;6.93;3.20;;;;;;;;;;5011393;28;20289;-62
2023/09/15 08:18:48;;;;;;;3.63;3.42;;;;;;;;;;5011478;28;20209;-57
2023/09/15 08:21:16;;;;;;;3.83;3.55;;;;;;;;;;5011491;28;20253;-61
2023/09/15 08:23:43;;;;;;;3.83;3.45;;;;;;;;;;5011301;28;20220;-61
2023/09/15 08:26:10;;;;;;;3.72;3.40;;;;;;;;;;5004943;28;20209;-63
2023/09/15 08:28:37;;;;;;;3.90;3.50;;;;;;;;;;4991486;28;20228;-62
2023/09/15 08:31:05;;;;;;;3.97;3.58;;;;;;;;;;5004952;28;20232;-60
2023/09/15 08:33:32;;;;;;;3.60;3.40;;;;;;;;;;5011132;28;20268;-62
2023/09/15 08:35:59;;;;;;;5.18;3.72;;;;;;;;;;5001505;28;20214;-62
2023/09/15 08:38:32;;;;;;;4.97;3.45;;;;;;;;;;4995914;28;20205;-62
2023/09/15 08:41:01;;;;;;;3.50;3.30;;;;;;;;;;5000669;28;20212;-62
2023/09/15 08:43:29;;;;;;;3.95;3.60;;;;;;;;;;5009797;28;20205;-63
2023/09/15 08:45:57;;;;;;;4.07;3.60;;;;;;;;;;5010912;28;20248;-65
2023/09/15 08:48:25;;;;;;;3.78;3.58;;;;;;;;;;5009900;28;20205;-64
2023/09/15 08:50:53;;;;;;;5.43;3.65;;;;;;;;;;5009826;28;20213;-65
2023/09/15 08:53:21;;;;;;;3.35;3.15;;;;;;;;;;5010397;28;20220;-65
2023/09/15 08:55:49;;;;;;;3.22;3.05;;;;;;;;;;5009545;28;20224;-65
2023/09/15 08:58:17;;;;;;;3.22;2.97;;;;;;;;;;5008336;28;20237;-64
2023/09/15 09:00:45;;;;;;;4.82;3.25;;;;;;;;;;5007841;28;20703;-67
2023/09/15 09:03:13;;;;;;;4.93;3.20;;;;;;;;;;5006200;28;20271;-66
2023/09/15 09:05:42;;;;;;;3.05;2.75;;;;;;;;;;5008847;28;20240;-66
2023/09/15 09:08:10;;;;;;;3.58;3.35;;;;;;;;;;5009713;28;20201;-66
2023/09/15 09:10:37;;;;;;;4.60;3.40;;;;;;;;;;5009388;28;20205;-61
2023/09/15 09:13:05;;;;;;;3.03;2.90;;;;;;;;;;5009034;28;20235;-61
2023/09/15 09:15:33;;;;;;;5.38;3.40;;;;;;;;;;5007790;28;20213;-61
2023/09/15 09:18:00;;;;;;;4.85;3.45;;;;;;;;;;5004765;28;20209;-61
2023/09/15 09:20:27;;;;;;;7.25;3.40;;;;;;;;;;5009251;28;20219;-62
2023/09/15 09:22:55;;;;;;;3.75;3.55;;;;;;;;;;5010358;28;20210;-63
2023/09/15 09:25:28;;;;;;;4.00;3.67;;;;;;;;;;5009637;28;20216;-62
2023/09/15 09:27:56;;;;;;;3.55;3.35;;;;;;;;;;4991900;28;20210;-63
2023/09/15 09:30:29;;;;;;;3.22;3.05;;;;;;;;;;4999625;28;20216;-62
2023/09/15 09:32:56;;;;;;;3.60;3.40;;;;;;;;;;5010192;28;20653;-67
2023/09/15 09:35:23;;;;;;;3.75;3.45;;;;;;;;;;5010243;28;20228;-64
2023/09/15 09:37:50;;;;;;;3.00;2.90;;;;;;;;;;5009228;28;20201;-63
2023/09/15 09:40:18;;;;;;;3.60;3.30;;;;;;;;;;5010083;28;20223;-61
2023/09/15 09:42:45;;;;;;;3.65;3.05;;;;;;;;;;5009871;28;20212;-63
2023/09/15 09:45:12;;;;;;;3.53;3.17;;;;;;;;;;5009851;28;20236;-65
2023/09/15 09:47:40;;;;;;;4.22;3.25;;;;;;;;;;5009173;28;20550;-64
2023/09/15 09:50:09;;;;;;;5.70;3.58;;;;;;;;;;5009938;28;20217;-64
2023/09/15 09:52:36;;;;;;;3.53;3.33;;;;;;;;;;5009735;28;20682;-66
2023/09/15 09:55:05;;;;;;;3.13;2.92;;;;;;;;;;5009673;28;20229;-66
2023/09/15 09:57:32;;;;;;;3.95;2.95;;;;;;;;;;5008382;28;20248;-67
2023/09/15 10:00:03;;;;;;;3.42;3.13;;;;;;;;;;5010403;28;20597;-68
2023/09/15 10:02:30;;;;;;;3.45;3.15;;;;;;;;;;5009794;28;20287;-66
2023/09/15 10:04:59;;;;;;;7.03;3.58;;;;;;;;;;5010231;28;20224;-68
2023/09/15 10:07:27;;;;;;;3.28;3.08;;;;;;;;;;5010364;28;20223;-67
2023/09/15 10:09:54;;;;;;;3.45;3.25;;;;;;;;;;5010270;28;20220;-67
2023/09/15 10:12:23;;;;;;;3.20;3.00;;;;;;;;;;5009774;28;20238;-67
2023/09/15 10:14:50;;;;;;;4.38;2.90;;;;;;;;;;5008574;28;20243;-67
2023/09/15 10:17:19;;;;;;;3.30;3.13;;;;;;;;;;5009295;28;20209;-64
2023/09/15 10:19:46;;;;;;;3.97;3.35;;;;;;;;;;5009581;28;20260;-70
2023/09/15 10:22:15;;;;;;;6.45;3.30;;;;;;;;;;5009472;28;20675;-68
2023/09/15 10:24:44;;;;;;;3.35;3.15;;;;;;;;;;5008992;28;20197;-68
2023/09/15 10:27:11;;;;;;;3.08;2.97;;;;;;;;;;5009268;28;20216;-67
2023/09/15 10:29:38;;;;;;;3.20;3.00;;;;;;;;;;5009456;28;20653;-67
2023/09/15 10:32:06;;;;;;;8.63;3.00;;;;;;;;;;5008617;28;20212;-68
2023/09/15 10:34:33;;;;;;;3.42;3.22;;;;;;;;;;5008771;28;20255;-64
2023/09/15 10:37:01;;;;;;;3.75;3.33;;;;;;;;;;5009118;28;20217;-62
2023/09/15 10:39:36;;;;;;;5.32;4.68;;;;;;;;;;5009035;28;20209;-62
2023/09/15 10:42:06;;;;;;;3.75;3.63;;;;;;;;;;5008963;28;20213;-63
2023/09/15 10:44:33;;;;;;;6.43;4.13;;;;;;;;;;5009115;28;20212;-62
2023/09/15 10:47:00;;;;;;;4.55;3.47;;;;;;;;;;5008824;28;20287;-64
2023/09/15 10:49:27;;;;;;;3.05;2.85;;;;;;;;;;5008943;28;20224;-63
2023/09/15 10:51:55;;;;;;;4.30;3.25;;;;;;;;;;5008076;28;20228;-66
2023/09/15 10:54:23;;;;;;;3.25;2.90;;;;;;;;;;5008962;28;20232;-63
2023/09/15 10:56:51;;;;;;;9.38;5.47;;;;;;;;;;5007961;28;20252;-63
2023/09/15 10:59:18;;;;;;;4.72;3.40;;;;;;;;;;5008915;28;20213;-62
2023/09/15 11:01:46;;;;;;;6.22;3.00;;;;;;;;;;5007793;28;20205;-68
2023/09/15 11:04:17;;;;;;;3.20;3.00;;;;;;;;;;5008954;28;20213;-67
2023/09/15 11:07:17;;;;;;;2.60;2.60;;;;;;;;;;5008681;28;20249;-67
2023/09/15 11:09:45;;;;;;;3.50;3.13;;;;;;;;;;5008744;28;20221;-67
2023/09/15 11:12:14;;;;;;;3.17;2.83;;;;;;;;;;5007753;28;20714;-64
2023/09/15 11:14:41;;;;;;;3.15;2.95;;;;;;;;;;4989165;28;20320;-63
2023/09/15 11:17:08;;;;;;;3.03;2.92;;;;;;;;;;4988380;28;20213;-63
2023/09/15 11:19:37;;;;;;;2.80;2.60;;;;;;;;;;4988919;28;20224;-63
2023/09/15 11:22:04;;;;;;;3.20;3.03;;;;;;;;;;5000116;28;20647;-63
2023/09/15 11:24:33;;;;;;;2.85;2.75;;;;;;;;;;5007570;28;20588;-66
2023/09/15 11:27:01;;;;;;;3.00;2.80;;;;;;;;;;5008782;28;20849;-65
2023/09/15 11:29:31;;;;;;;2.90;2.80;;;;;;;;;;5008314;28;20667;-69
2023/09/15 11:31:59;;;;;;;2.97;2.65;;;;;;;;;;5004488;28;20221;-63
2023/09/15 11:34:26;;;;;;;2.45;2.35;;;;;;;;;;5005807;28;20287;-65
2023/09/15 11:36:57;;;;;;;3.10;2.50;;;;;;;;;;5007249;28;20277;-63
2023/09/15 11:39:24;;;;;;;4.03;2.72;;;;;;;;;;5007962;28;20441;-71
2023/09/15 11:41:53;;;;;;;2.40;2.30;;;;;;;;;;5008125;28;20208;-73
2023/09/15 11:44:21;;;;;;;2.42;2.15;;;;;;;;;;5008113;28;20297;-76
2023/09/15 11:46:50;;;;;;;2.40;2.30;;;;;;;;;;5007138;28;20743;-74
2023/09/15 11:49:18;;;;;;;3.03;2.42;;;;;;;;;;5006257;28;20249;-64
2023/09/15 11:51:45;;;;;;;3.30;2.75;;;;;;;;;;5008338;28;20242;-66
2023/09/15 11:54:12;;;;;;;2.50;2.30;;;;;;;;;;5007554;28;20233;-64
2023/09/15 11:56:40;;;;;;;2.45;2.25;;;;;;;;;;5008037;28;20598;-65
2023/09/15 11:59:07;;;;;;;3.78;2.38;;;;;;;;;;5008348;28;20208;-62
2023/09/15 12:01:34;;;;;;;2.45;2.25;;;;;;;;;;5008262;28;20217;-63
2023/09/15 12:04:03;;;;;;;2.30;2.30;;;;;;;;;;5008283;28;20201;-62
2023/09/15 12:06:31;;;;;;;2.10;2.10;;;;;;;;;;5008026;28;20263;-65
2023/09/15 12:08:58;;;;;;;2.08;2.00;;;;;;;;;;5008164;28;20205;-63
2023/09/15 12:11:25;;;;;;;28.40;12.80;;;;;;;;;;5007937;28;20213;-64
2023/09/15 12:13:54;;;;;;;24.88;11.82;;;;;;;;;;5007718;28;20233;-66
2023/09/15 12:16:24;;;;;;;2.30;2.25;;;;;;;;;;4988851;28;20225;-63
2023/09/15 12:18:51;;;;;;;3.50;2.63;;;;;;;;;;4988451;28;20693;-62
2023/09/15 12:21:24;;;;;;;10.40;5.47;;;;;;;;;;4988423;28;20261;-63
2023/09/15 12:23:54;;;;;;;7.88;4.38;;;;;;;;;;5004621;28;20255;-66
2023/09/15 12:26:21;;;;;;;1.90;1.90;;;;;;;;;;5007908;28;20305;-64
2023/09/15 12:28:48;;;;;;;3.70;2.78;;;;;;;;;;5008357;28;20220;-63
2023/09/15 12:31:17;;;;;;;1.80;1.70;;;;;;;;;;5011497;28;20284;-63
2023/09/15 12:33:44;;;;;;;2.05;2.03;;;;;;;;;;5010057;28;20292;-69
2023/09/15 12:36:12;;;;;;;5.45;2.33;;;;;;;;;;4992422;28;20213;-63
2023/09/15 12:38:41;;;;;;;1.92;1.83;;;;;;;;;;4995792;28;20210;-64
2023/09/15 12:41:08;;;;;;;2.78;2.20;;;;;;;;;;4991200;28;20269;-64
2023/09/15 12:43:35;;;;;;;2.20;2.10;;;;;;;;;;4990538;28;20237;-65
2023/09/15 12:46:03;;;;;;;2.10;1.98;;;;;;;;;;4990844;28;20217;-65
2023/09/15 12:48:30;;;;;;;1.80;1.70;;;;;;;;;;5003524;28;20217;-66
2023/09/15 12:50:57;;;;;;;2.78;1.90;;;;;;;;;;4991150;28;20277;-65
2023/09/15 12:53:24;;;;;;;1.60;1.60;;;;;;;;;;4994962;28;20561;-65
2023/09/15 12:55:53;;;;;;;1.30;1.30;;;;;;;;;;4991653;28;20232;-65
2023/09/15 12:58:20;;;;;;;2.15;2.08;;;;;;;;;;4989820;28;20248;-65
2023/09/15 13:00:47;;;;;;;1.95;1.95;;;;;;;;;;4992525;28;20214;-65
2023/09/15 13:03:14;;;;;;;1.60;1.50;;;;;;;;;;5009446;28;20213;-64
2023/09/15 13:05:41;;;;;;;1.60;1.50;;;;;;;;;;5009831;28;20209;-65
2023/09/15 13:08:08;;;;;;;2.42;1.40;;;;;;;;;;5009830;28;20217;-65
2023/09/15 13:10:35;;;;;;;2.92;1.92;;;;;;;;;;5009945;28;20220;-64
2023/09/15 13:13:03;;;;;;;2.10;2.00;;;;;;;;;;5005252;28;20573;-64
2023/09/15 13:15:30;;;;;;;1.88;1.85;;;;;;;;;;5009593;28;20228;-64
2023/09/15 13:17:58;;;;;;;1.70;1.58;;;;;;;;;;5006065;28;20217;-65
2023/09/15 13:20:25;;;;;;;1.60;1.50;;;;;;;;;;5010296;28;20291;-64
2023/09/15 13:22:52;;;;;;;2.00;1.60;;;;;;;;;;5003952;28;20701;-64
2023/09/15 13:25:19;;;;;;;1.73;1.65;;;;;;;;;;4995224;28;20205;-64
2023/09/15 13:27:46;;;;;;;4.25;1.60;;;;;;;;;;5005037;28;20697;-66
2023/09/15 13:30:15;;;;;;;1.38;1.35;;;;;;;;;;5004271;28;20222;-66
2023/09/15 13:32:43;;;;;;;3.08;1.70;;;;;;;;;;4998954;28;20214;-65
2023/09/15 13:35:11;;;;;;;1.85;1.75;;;;;;;;;;4998433;28;20708;-65
2023/09/15 13:37:38;;;;;;;1.75;1.65;;;;;;;;;;4996789;28;20216;-64
2023/09/15 13:40:06;;;;;;;1.92;1.80;;;;;;;;;;5004660;28;20218;-65
2023/09/15 13:42:34;;;;;;;1.85;1.85;;;;;;;;;;5007246;28;20201;-61
2023/09/15 13:45:01;;;;;;;2.63;1.98;;;;;;;;;;5009394;28;20305;-61
2023/09/15 13:47:32;;;;;;;1.80;1.80;;;;;;;;;;5009733;28;20667;-60
2023/09/15 13:49:59;;;;;;;3.53;2.00;;;;;;;;;;5009567;28;20231;-61
2023/09/15 13:52:27;;;;;;;1.80;1.70;;;;;;;;;;5006483;28;20209;-61
2023/09/15 13:54:54;;;;;;;4.07;2.05;;;;;;;;;;5004527;28;20722;-60
2023/09/15 13:57:21;;;;;;;2.10;1.95;;;;;;;;;;5004673;28;20605;-60
2023/09/15 13:59:48;;;;;;;1.77;1.67;;;;;;;;;;5004476;28;20208;-63
2023/09/15 14:02:15;;;;;;;1.80;1.70;;;;;;;;;;5003597;28;20586;-64
2023/09/15 14:04:45;;;;;;;2.70;1.80;;;;;;;;;;5003231;28;20263;-64
2023/09/15 14:07:12;;;;;;;2.35;1.75;;;;;;;;;;4989044;28;20246;-64
2023/09/15 14:09:40;;;;;;;2.35;1.83;;;;;;;;;;4999809;28;20581;-64
2023/09/15 14:12:07;;;;;;;1.50;1.50;;;;;;;;;;5000755;28;20267;-63
2023/09/15 14:14:35;;;;;;;1.40;1.40;;;;;;;;;;4997661;28;20233;-65
2023/09/15 14:17:04;;;;;;;1.50;1.50;;;;;;;;;;5004024;28;20693;-62
2023/09/15 14:19:32;;;;;;;1.30;1.30;;;;;;;;;;5001605;28;20288;-63
2023/09/15 14:22:00;;;;;;;1.42;1.42;;;;;;;;;;4999185;28;20267;-62
2023/09/15 14:24:29;;;;;;;1.40;1.40;;;;;;;;;;5000096;28;20221;-63
2023/09/15 14:26:57;;;;;;;1.88;1.77;;;;;;;;;;5001483;28;20221;-63
2023/09/15 14:29:24;;;;;;;1.45;1.45;;;;;;;;;;5001488;28;20632;-63
2023/09/15 14:31:51;;;;;;;1.20;1.20;;;;;;;;;;5000307;28;20220;-62
2023/09/15 14:34:18;;;;;;;1.77;1.70;;;;;;;;;;5003332;28;20224;-62
2023/09/15 14:36:45;;;;;;;1.40;1.40;;;;;;;;;;5005426;28;20209;-62
2023/09/15 14:39:15;;;;;;;1.90;1.60;;;;;;;;;;5000830;28;20224;-61
2023/09/15 14:41:43;;;;;;;1.42;1.42;;;;;;;;;;5005396;28;20224;-61
2023/09/15 14:44:17;;;;;;;1.90;1.80;;;;;;;;;;5002629;28;20227;-62
2023/09/15 14:46:44;;;;;;;1.50;1.40;;;;;;;;;;5004179;28;20211;-62